createdAt,value
2019-02-21T00:00:49.916Z,7.90
2019-02-21T00:03:20.252Z,7.90
2019-02-21T00:05:50.564Z,7.90
2019-02-21T00:08:20.974Z,7.90
2019-02-21T00:10:51.410Z,7.90
2019-02-21T00:13:22.044Z,7.90
2019-02-21T00:15:52.637Z,7.80
2019-02-21T00:18:23.027Z,7.80
2019-02-21T00:20:53.738Z,7.80
2019-02-21T00:23:23.979Z,7.80
2019-02-21T00:25:55.793Z,7.80
2019-02-21T00:28:27.255Z,7.80
2019-02-21T00:30:57.700Z,7.80
2019-02-21T00:33:28.182Z,7.70
2019-02-21T00:35:58.826Z,7.70
2019-02-21T00:38:31.657Z,7.70
2019-02-21T00:41:01.889Z,7.70
2019-02-21T00:43:32.571Z,7.60
2019-02-21T00:46:02.833Z,7.60
2019-02-21T00:48:32.948Z,7.60
2019-02-21T00:51:06.529Z,7.60
2019-02-21T00:53:36.776Z,7.50
2019-02-21T00:56:07.323Z,7.50
2019-02-21T00:58:37.545Z,7.50
2019-02-21T01:01:08.360Z,7.50
2019-02-21T01:03:38.737Z,7.40
2019-02-21T01:06:08.936Z,7.30
2019-02-21T01:08:39.044Z,7.30
2019-02-21T01:11:09.848Z,7.30
2019-02-21T01:13:40.886Z,7.30
2019-02-21T01:16:11.117Z,7.30
2019-02-21T01:18:42.033Z,7.20
2019-02-21T01:21:12.320Z,7.20
2019-02-21T01:23:42.577Z,7.20
2019-02-21T01:26:13.168Z,7.20
2019-02-21T01:28:44.209Z,7.20
2019-02-21T01:31:14.490Z,7.10
2019-02-21T01:33:44.716Z,7.10
2019-02-21T01:36:14.899Z,7.00
2019-02-21T01:38:45.004Z,7.00
2019-02-21T01:41:15.574Z,7.00
2019-02-21T01:43:46.196Z,7.00
2019-02-21T01:46:16.394Z,7.00
2019-02-21T01:48:46.799Z,7.00
2019-02-21T01:51:19.335Z,6.90
2019-02-21T01:53:49.768Z,6.90
2019-02-21T01:56:19.796Z,6.90
2019-02-21T01:58:49.847Z,6.90
2019-02-21T02:01:20.659Z,6.90
2019-02-21T02:03:51.136Z,6.90
2019-02-21T02:06:21.284Z,6.90
2019-02-21T02:08:52.201Z,6.90
2019-02-21T02:11:22.494Z,6.90
2019-02-21T02:13:52.631Z,6.90
2019-02-21T02:16:23.090Z,6.90
2019-02-21T02:18:54.178Z,6.90
2019-02-21T02:21:24.444Z,6.80
2019-02-21T02:23:54.662Z,6.80
2019-02-21T02:26:25.146Z,6.90
2019-02-21T02:28:55.370Z,6.90
2019-02-21T02:31:25.817Z,6.90
2019-02-21T02:33:56.433Z,6.90
2019-02-21T02:36:26.795Z,6.90
2019-02-21T02:38:57.353Z,6.90
2019-02-21T02:41:27.460Z,6.90
2019-02-21T02:43:59.201Z,6.90
2019-02-21T02:46:29.565Z,6.90
2019-02-21T02:49:00.118Z,6.90
2019-02-21T02:51:30.516Z,6.90
2019-02-21T02:54:01.013Z,7.00
2019-02-21T02:56:31.270Z,7.00
2019-02-21T02:59:02.173Z,7.00
2019-02-21T03:01:35.066Z,7.00
2019-02-21T03:04:04.483Z,7.00
2019-02-21T03:06:35.247Z,7.00
2019-02-21T03:09:08.335Z,6.90
2019-02-21T03:11:38.585Z,7.00
2019-02-21T03:14:09.622Z,6.90
2019-02-21T03:16:40.449Z,6.90
2019-02-21T03:19:11.140Z,6.90
2019-02-21T03:21:41.379Z,6.90
2019-02-21T03:24:11.857Z,6.90
2019-02-21T03:26:42.326Z,6.80
2019-02-21T03:29:13.805Z,6.80
2019-02-21T03:31:54.819Z,6.80
2019-02-21T03:34:16.542Z,6.80
2019-02-21T03:36:47.078Z,6.80
2019-02-21T03:39:17.360Z,6.80
2019-02-21T03:41:48.045Z,6.70
2019-02-21T03:44:18.910Z,6.70
2019-02-21T03:46:49.491Z,6.60
2019-02-21T03:49:19.813Z,6.60
2019-02-21T03:51:50.145Z,6.60
2019-02-21T03:54:21.320Z,6.60
2019-02-21T03:56:51.807Z,6.60
2019-02-21T03:59:22.884Z,6.50
2019-02-21T04:02:04.508Z,6.50
2019-02-21T04:04:25.169Z,6.50
2019-02-21T04:06:55.431Z,6.50
2019-02-21T04:09:25.912Z,6.50
2019-02-21T04:11:56.163Z,6.40
2019-02-21T04:14:27.075Z,6.50
2019-02-21T04:16:57.914Z,6.50
2019-02-21T04:19:28.242Z,6.40
2019-02-21T04:21:58.939Z,6.40
2019-02-21T04:24:29.681Z,6.40
2019-02-21T04:27:00.371Z,6.30
2019-02-21T04:29:33.609Z,6.40
2019-02-21T04:32:03.956Z,6.30
2019-02-21T04:34:34.739Z,6.20
2019-02-21T04:37:05.398Z,6.20
2019-02-21T04:39:35.689Z,6.20
2019-02-21T04:42:06.341Z,6.20
2019-02-21T04:44:36.846Z,6.10
2019-02-21T04:47:07.319Z,6.10
2019-02-21T04:49:37.950Z,6.10
2019-02-21T04:52:08.329Z,6.10
2019-02-21T04:54:38.709Z,6.10
2019-02-21T04:57:09.005Z,6.10
2019-02-21T04:59:40.448Z,6.20
2019-02-21T05:02:13.377Z,6.10
2019-02-21T05:04:44.386Z,6.10
2019-02-21T05:07:15.750Z,6.10
2019-02-21T05:09:57.619Z,6.00
2019-02-21T05:12:20.267Z,6.00
2019-02-21T05:14:51.388Z,6.00
2019-02-21T05:17:23.149Z,6.00
2019-02-21T05:19:53.690Z,5.90
2019-02-21T05:22:23.863Z,5.90
2019-02-21T05:24:54.515Z,5.90
2019-02-21T05:27:29.369Z,5.90
2019-02-21T05:29:59.685Z,5.80
2019-02-21T05:32:48.400Z,5.90
2019-02-21T05:35:36.518Z,5.80
2019-02-21T05:38:24.659Z,5.80
2019-02-21T05:41:05.825Z,5.80
2019-02-21T05:43:58.519Z,5.80
2019-02-21T05:46:49.009Z,5.80
2019-02-21T05:49:44.604Z,5.80
2019-02-21T05:52:40.334Z,5.80
2019-02-21T05:55:23.400Z,5.80
2019-02-21T05:58:12.744Z,5.70
2019-02-21T06:01:10.984Z,5.70
2019-02-21T06:03:49.684Z,5.70
2019-02-21T06:06:45.804Z,5.80
2019-02-21T06:09:27.839Z,5.70
2019-02-21T06:12:11.798Z,5.70
2019-02-21T06:15:00.557Z,5.80
2019-02-21T06:17:54.404Z,5.80
2019-02-21T06:20:53.426Z,5.80
2019-02-21T06:23:44.361Z,5.80
2019-02-21T06:26:39.501Z,5.80
2019-02-21T06:29:41.412Z,5.80
2019-02-21T06:32:14.547Z,5.70
2019-02-21T06:34:44.374Z,5.80
2019-02-21T06:37:17.728Z,5.70
2019-02-21T06:39:47.941Z,5.70
2019-02-21T06:42:18.222Z,5.70
2019-02-21T06:44:48.892Z,5.80
2019-02-21T06:47:19.102Z,5.80
2019-02-21T06:49:52.084Z,5.80
2019-02-21T06:52:22.548Z,5.80
2019-02-21T06:54:52.673Z,5.80
2019-02-21T06:57:36.933Z,5.90
2019-02-21T07:00:05.305Z,5.90
2019-02-21T07:02:38.956Z,6.00
2019-02-21T07:05:11.947Z,6.10
2019-02-21T07:07:42.299Z,6.10
2019-02-21T07:10:15.547Z,6.10
2019-02-21T07:12:46.999Z,6.10
2019-02-21T07:15:17.361Z,6.10
2019-02-21T07:17:49.492Z,6.20
2019-02-21T07:20:20.483Z,6.20
2019-02-21T07:22:50.873Z,6.20
2019-02-21T07:25:34.665Z,6.30
2019-02-21T07:28:11.707Z,6.30
2019-02-21T07:30:37.130Z,6.40
2019-02-21T07:33:07.925Z,6.40
2019-02-21T07:35:38.326Z,6.50
2019-02-21T07:38:10.477Z,6.60
2019-02-21T07:40:41.080Z,6.60
2019-02-21T07:43:12.855Z,6.70
2019-02-21T07:45:43.769Z,6.80
2019-02-21T07:48:13.991Z,6.80
2019-02-21T07:50:44.156Z,6.80
2019-02-21T07:53:14.861Z,6.90
2019-02-21T07:55:45.104Z,6.90
2019-02-21T07:58:15.428Z,6.90
2019-02-21T08:00:49.030Z,7.00
2019-02-21T08:03:29.781Z,7.00
2019-02-21T08:05:51.357Z,7.00
2019-02-21T08:08:22.157Z,7.00
2019-02-21T08:10:52.513Z,7.00
2019-02-21T08:13:22.887Z,7.10
2019-02-21T08:15:53.678Z,7.20
2019-02-21T08:18:23.976Z,7.10
2019-02-21T08:20:54.376Z,7.20
2019-02-21T08:23:25.557Z,7.20
2019-02-21T08:25:55.954Z,7.30
2019-02-21T08:28:28.081Z,7.40
2019-02-21T08:30:58.882Z,7.40
2019-02-21T08:33:58.391Z,7.40
2019-02-21T08:36:26.069Z,7.40
2019-02-21T08:38:56.983Z,7.40
2019-02-21T08:41:27.234Z,7.40
2019-02-21T08:44:00.169Z,7.40
2019-02-21T08:46:30.330Z,7.50
2019-02-21T08:49:00.791Z,7.60
2019-02-21T08:51:31.197Z,7.60
2019-02-21T08:54:01.843Z,7.70
2019-02-21T08:56:32.002Z,7.70
2019-02-21T08:59:02.267Z,7.70
2019-02-21T09:01:34.378Z,7.80
2019-02-21T09:04:13.340Z,7.80
2019-02-21T09:06:36.935Z,7.70
2019-02-21T09:09:08.165Z,7.80
2019-02-21T09:11:38.515Z,7.80
2019-02-21T09:14:11.968Z,7.90
2019-02-21T09:16:42.802Z,7.90
2019-02-21T09:19:13.311Z,7.90
2019-02-21T09:21:44.562Z,8.00
2019-02-21T09:24:26.857Z,8.00
2019-02-21T09:26:46.571Z,7.90
2019-02-21T09:29:17.129Z,8.00
2019-02-21T09:31:47.416Z,8.10
2019-02-21T09:34:21.513Z,8.10
2019-02-21T09:36:51.460Z,8.10
2019-02-21T09:39:21.841Z,8.20
2019-02-21T09:41:52.031Z,8.10
2019-02-21T09:44:22.342Z,8.20
2019-02-21T09:46:52.749Z,8.20
2019-02-21T09:49:23.564Z,8.20
2019-02-21T09:51:54.263Z,8.20
2019-02-21T09:54:24.755Z,8.20
2019-02-21T09:57:12.252Z,8.20
2019-02-21T09:59:28.818Z,8.40
2019-02-21T10:01:59.146Z,8.50
2019-02-21T10:04:32.455Z,8.60
2019-02-21T10:07:03.811Z,8.70
2019-02-21T10:09:34.209Z,8.70
2019-02-21T10:12:04.955Z,8.70
2019-02-21T10:14:35.289Z,8.70
2019-02-21T10:17:05.517Z,8.80
2019-02-21T10:19:40.306Z,8.80
2019-02-21T10:22:13.401Z,8.90
2019-02-21T10:24:44.030Z,9.00
2019-02-21T10:27:14.062Z,9.10
2019-02-21T10:29:44.297Z,9.10
2019-02-21T10:32:15.100Z,9.20
2019-02-21T10:34:48.310Z,9.40
2019-02-21T10:37:18.840Z,9.40
2019-02-21T10:39:51.027Z,9.60
2019-02-21T10:42:21.265Z,9.60
2019-02-21T10:44:53.413Z,9.60
2019-02-21T10:47:24.241Z,9.80
2019-02-21T10:49:55.000Z,9.70
2019-02-21T10:52:25.524Z,9.80
2019-02-21T10:54:55.992Z,9.90
2019-02-21T10:57:35.243Z,10.00
2019-02-21T11:00:10.449Z,10.00
2019-02-21T11:02:41.965Z,9.90
2019-02-21T11:05:14.185Z,10.00
2019-02-21T11:07:45.848Z,10.00
2019-02-21T11:10:19.201Z,10.10
2019-02-21T11:12:49.663Z,10.10
2019-02-21T11:15:20.275Z,10.20
2019-02-21T11:17:50.920Z,10.20
2019-02-21T11:20:21.289Z,10.10
2019-02-21T11:22:51.789Z,10.20
2019-02-21T11:25:22.060Z,10.40
2019-02-21T11:27:52.571Z,10.50
2019-02-21T11:30:23.505Z,10.40
2019-02-21T11:32:54.213Z,10.70
2019-02-21T11:35:24.716Z,10.90
2019-02-21T11:37:56.533Z,11.20
2019-02-21T11:40:27.093Z,11.10
2019-02-21T11:42:57.610Z,11.10
2019-02-21T11:45:28.071Z,11.00
2019-02-21T11:48:00.305Z,11.10
2019-02-21T11:50:31.151Z,11.10
2019-02-21T11:53:02.158Z,11.20
2019-02-21T11:55:32.856Z,11.50
2019-02-21T11:58:03.683Z,11.60
2019-02-21T12:00:35.821Z,11.10
2019-02-21T12:03:06.163Z,11.10
2019-02-21T12:05:36.660Z,11.10
2019-02-21T12:08:10.030Z,11.20
2019-02-21T12:10:41.101Z,11.20
2019-02-21T12:13:11.554Z,11.10
2019-02-21T12:15:43.425Z,11.20
2019-02-21T12:18:14.645Z,11.40
2019-02-21T12:20:45.011Z,11.30
2019-02-21T12:23:17.689Z,11.30
2019-02-21T12:25:47.249Z,11.20
2019-02-21T12:28:17.527Z,11.20
2019-02-21T12:30:47.835Z,11.40
2019-02-21T12:33:19.341Z,11.40
2019-02-21T12:35:50.104Z,11.30
2019-02-21T12:38:23.700Z,11.30
2019-02-21T12:40:54.274Z,11.60
2019-02-21T12:43:25.899Z,11.90
2019-02-21T12:46:01.442Z,11.80
2019-02-21T12:48:32.005Z,11.90
2019-02-21T12:51:02.329Z,11.80
2019-02-21T12:53:37.645Z,11.60
2019-02-21T12:56:08.300Z,11.80
2019-02-21T12:58:41.369Z,11.40
2019-02-21T13:01:16.007Z,11.30
2019-02-21T13:03:46.394Z,11.30
2019-02-21T13:06:16.913Z,11.30
2019-02-21T13:08:49.980Z,11.30
2019-02-21T13:11:22.987Z,11.40
2019-02-21T13:13:54.513Z,11.20
2019-02-21T13:16:26.965Z,11.10
2019-02-21T13:18:59.019Z,11.20
2019-02-21T13:21:29.335Z,11.30
2019-02-21T13:24:02.708Z,11.30
2019-02-21T13:26:35.175Z,11.20
2019-02-21T13:29:05.510Z,11.40
2019-02-21T13:31:35.546Z,11.20
2019-02-21T13:34:05.945Z,11.30
2019-02-21T13:36:37.794Z,11.10
2019-02-21T13:39:09.413Z,11.10
2019-02-21T13:41:39.660Z,11.20
2019-02-21T13:44:10.106Z,11.40
2019-02-21T13:46:41.748Z,11.20
2019-02-21T13:49:13.555Z,11.10
2019-02-21T13:51:54.443Z,11.20
2019-02-21T13:54:24.976Z,11.00
2019-02-21T13:56:58.011Z,11.00
2019-02-21T13:59:31.587Z,11.20
2019-02-21T14:02:19.929Z,11.00
2019-02-21T14:04:52.227Z,10.90
2019-02-21T14:07:23.841Z,10.80
2019-02-21T14:09:54.180Z,11.10
2019-02-21T14:12:26.477Z,11.00
2019-02-21T14:14:58.062Z,11.10
2019-02-21T14:17:28.968Z,11.20
2019-02-21T14:20:01.138Z,11.10
2019-02-21T14:22:31.602Z,11.00
2019-02-21T14:25:02.052Z,11.00
2019-02-21T14:27:35.162Z,11.00
2019-02-21T14:30:06.685Z,11.00
2019-02-21T14:32:37.925Z,11.00
2019-02-21T14:35:14.030Z,11.10
2019-02-21T14:37:43.911Z,11.20
2019-02-21T14:40:14.389Z,11.30
2019-02-21T14:42:44.819Z,11.30
2019-02-21T14:45:17.500Z,11.20
2019-02-21T14:47:51.135Z,11.30
2019-02-21T14:50:21.873Z,11.30
2019-02-21T14:52:58.480Z,11.30
2019-02-21T14:55:30.161Z,11.30
2019-02-21T14:58:00.987Z,11.30
2019-02-21T15:00:31.374Z,11.50
2019-02-21T15:03:01.896Z,11.50
2019-02-21T15:05:32.574Z,11.60
2019-02-21T15:08:02.709Z,11.50
2019-02-21T15:10:33.672Z,11.50
2019-02-21T15:13:04.380Z,11.40
2019-02-21T15:15:34.953Z,11.50
2019-02-21T15:18:11.237Z,11.40
2019-02-21T15:20:40.375Z,11.40
2019-02-21T15:23:11.065Z,11.40
2019-02-21T15:25:45.379Z,11.40
2019-02-21T15:28:21.317Z,11.40
2019-02-21T15:30:51.908Z,11.40
2019-02-21T15:33:22.122Z,11.40
2019-02-21T15:35:56.427Z,11.40
2019-02-21T15:38:26.915Z,11.40
2019-02-21T15:40:58.283Z,11.50
2019-02-21T15:43:29.285Z,11.40
2019-02-21T15:45:59.425Z,11.40
2019-02-21T15:48:29.768Z,11.30
2019-02-21T15:51:00.298Z,11.30
2019-02-21T15:53:30.848Z,11.40
2019-02-21T15:56:01.214Z,11.40
2019-02-21T15:58:31.877Z,11.40
2019-02-21T16:01:02.400Z,11.40
2019-02-21T16:03:32.780Z,11.40
2019-02-21T16:06:03.596Z,11.40
2019-02-21T16:08:33.890Z,11.30
2019-02-21T16:11:04.488Z,11.30
2019-02-21T16:13:35.428Z,11.40
2019-02-21T16:16:05.953Z,11.30
2019-02-21T16:18:36.833Z,11.30
2019-02-21T16:21:11.355Z,11.30
2019-02-21T16:23:42.013Z,11.30
2019-02-21T16:26:12.716Z,11.30
2019-02-21T16:28:43.113Z,11.30
2019-02-21T16:31:15.605Z,11.20
2019-02-21T16:33:47.744Z,11.20
2019-02-21T16:36:18.293Z,11.20
2019-02-21T16:38:48.520Z,11.10
2019-02-21T16:41:21.017Z,11.20
2019-02-21T16:43:53.722Z,11.10
2019-02-21T16:46:30.314Z,11.00
2019-02-21T16:49:00.559Z,10.90
2019-02-21T16:51:30.957Z,10.90
2019-02-21T16:54:01.335Z,11.00
2019-02-21T16:56:31.488Z,10.90
2019-02-21T16:59:02.101Z,10.80
2019-02-21T17:01:35.525Z,10.80
2019-02-21T17:04:09.080Z,10.80
2019-02-21T17:06:42.889Z,10.90
2019-02-21T17:09:13.349Z,10.90
2019-02-21T17:11:47.188Z,10.90
2019-02-21T17:14:18.266Z,10.90
2019-02-21T17:16:50.708Z,10.90
2019-02-21T17:19:22.340Z,10.80
2019-02-21T17:21:52.715Z,10.80
2019-02-21T17:24:25.005Z,10.70
2019-02-21T17:27:01.052Z,10.80
2019-02-21T17:29:33.271Z,10.80
2019-02-21T17:32:04.146Z,10.80
2019-02-21T17:34:34.447Z,10.70
2019-02-21T17:37:05.388Z,10.60
2019-02-21T17:39:36.140Z,10.60
2019-02-21T17:42:06.529Z,10.70
2019-02-21T17:44:37.081Z,10.60
2019-02-21T17:47:10.429Z,10.60
2019-02-21T17:49:40.899Z,10.60
2019-02-21T17:52:11.392Z,10.60
2019-02-21T17:54:42.149Z,10.60
2019-02-21T17:57:20.049Z,10.60
2019-02-21T17:59:54.266Z,10.60
2019-02-21T18:02:24.849Z,10.70
2019-02-21T18:04:55.324Z,10.60
2019-02-21T18:07:36.161Z,10.60
2019-02-21T18:09:59.137Z,10.70
2019-02-21T18:12:29.843Z,10.70
2019-02-21T18:15:00.216Z,10.60
2019-02-21T18:17:30.870Z,10.80
2019-02-21T18:20:01.199Z,10.70
2019-02-21T18:22:33.481Z,10.60
2019-02-21T18:25:04.205Z,10.70
2019-02-21T18:27:34.853Z,10.80
2019-02-21T18:30:05.404Z,10.70
2019-02-21T18:32:35.930Z,10.70
2019-02-21T18:35:06.446Z,10.80
2019-02-21T18:37:46.682Z,10.80
2019-02-21T18:40:17.281Z,10.80
2019-02-21T18:42:44.823Z,10.70
2019-02-21T18:45:15.680Z,10.50
2019-02-21T18:47:46.271Z,10.40
2019-02-21T18:50:16.941Z,10.40
2019-02-21T18:52:47.544Z,10.50
2019-02-21T18:55:18.300Z,10.40
2019-02-21T18:57:52.796Z,10.30
2019-02-21T19:00:28.728Z,10.40
2019-02-21T19:02:58.807Z,10.40
2019-02-21T19:05:36.262Z,10.40
2019-02-21T19:08:07.044Z,10.40
2019-02-21T19:10:38.651Z,10.40
2019-02-21T19:13:12.098Z,10.40
2019-02-21T19:15:45.756Z,10.40
2019-02-21T19:18:19.640Z,10.50
2019-02-21T19:20:50.538Z,10.50
2019-02-21T19:23:21.159Z,10.50
2019-02-21T19:25:51.633Z,10.50
2019-02-21T19:28:21.930Z,10.40
2019-02-21T19:30:56.969Z,10.40
2019-02-21T19:33:30.472Z,10.30
2019-02-21T19:36:04.163Z,10.30
2019-02-21T19:38:35.069Z,10.30
2019-02-21T19:41:07.828Z,10.20
2019-02-21T19:43:38.622Z,10.20
2019-02-21T19:46:13.835Z,10.30
2019-02-21T19:49:00.766Z,10.20
2019-02-21T19:51:31.678Z,10.10
2019-02-21T19:54:02.148Z,10.10
2019-02-21T19:56:32.545Z,10.10
2019-02-21T19:59:03.798Z,10.10
2019-02-21T20:01:36.044Z,10.20
2019-02-21T20:04:07.048Z,10.10
2019-02-21T20:06:37.597Z,10.20
2019-02-21T20:09:12.298Z,10.10
2019-02-21T20:11:42.902Z,10.10
2019-02-21T20:14:15.581Z,10.00
2019-02-21T20:16:47.959Z,10.00
2019-02-21T20:19:18.205Z,10.00
2019-02-21T20:21:48.536Z,9.90
2019-02-21T20:24:21.454Z,9.90
2019-02-21T20:26:53.313Z,9.90
2019-02-21T20:29:23.585Z,10.00
2019-02-21T20:31:54.644Z,10.00
2019-02-21T20:34:25.325Z,9.90
2019-02-21T20:36:56.120Z,10.00
2019-02-21T20:39:26.838Z,9.90
2019-02-21T20:41:57.721Z,9.90
2019-02-21T20:44:28.157Z,9.90
2019-02-21T20:46:58.840Z,9.90
2019-02-21T20:49:31.625Z,9.90
2019-02-21T20:52:12.604Z,10.00
2019-02-21T20:54:42.950Z,10.00
2019-02-21T20:57:13.332Z,9.90
2019-02-21T20:59:45.225Z,9.90
2019-02-21T21:02:15.533Z,9.80
2019-02-21T21:04:45.895Z,9.80
2019-02-21T21:07:24.828Z,9.90
2019-02-21T21:09:50.766Z,9.80
2019-02-21T21:12:21.972Z,9.80
2019-02-21T21:14:52.159Z,9.80
2019-02-21T21:17:22.489Z,9.90
2019-02-21T21:19:52.962Z,9.90
2019-02-21T21:22:24.709Z,9.90
2019-02-21T21:24:56.600Z,9.80
2019-02-21T21:27:28.244Z,9.80
2019-02-21T21:29:58.459Z,9.80
2019-02-21T21:32:28.873Z,9.80
2019-02-21T21:34:59.305Z,9.80
2019-02-21T21:37:29.762Z,9.80
2019-02-21T21:40:04.974Z,9.80
2019-02-21T21:42:35.180Z,9.70
2019-02-21T21:45:09.462Z,9.70
2019-02-21T21:47:41.513Z,9.70
2019-02-21T21:50:14.168Z,9.80
2019-02-21T21:52:47.926Z,9.70
2019-02-21T21:55:18.323Z,9.80
2019-02-21T21:57:49.756Z,9.80
2019-02-21T22:00:21.909Z,9.70
2019-02-21T22:02:52.240Z,9.70
2019-02-21T22:05:22.851Z,9.60
2019-02-21T22:07:53.129Z,9.60
2019-02-21T22:10:23.412Z,9.70
2019-02-21T22:12:53.954Z,9.80
2019-02-21T22:15:24.958Z,9.70
2019-02-21T22:17:55.625Z,9.70
2019-02-21T22:20:26.139Z,9.70
2019-02-21T22:22:56.461Z,9.60
2019-02-21T22:25:26.967Z,9.50
2019-02-21T22:27:57.401Z,9.40
2019-02-21T22:30:28.105Z,9.50
2019-02-21T22:32:58.373Z,9.50
2019-02-21T22:35:28.881Z,9.50
2019-02-21T22:38:01.616Z,9.50
2019-02-21T22:40:32.233Z,9.50
2019-02-21T22:43:04.466Z,9.50
2019-02-21T22:45:34.862Z,9.40
2019-02-21T22:48:05.561Z,9.40
2019-02-21T22:50:37.894Z,9.40
2019-02-21T22:53:08.256Z,9.40
2019-02-21T22:55:39.151Z,9.40
2019-02-21T22:58:12.812Z,9.50
2019-02-21T23:01:00.698Z,9.50
2019-02-21T23:03:38.186Z,9.40
2019-02-21T23:06:47.534Z,9.40
2019-02-21T23:09:27.570Z,9.50
2019-02-21T23:11:57.916Z,9.50
2019-02-21T23:14:30.079Z,9.50
2019-02-21T23:17:00.742Z,9.50
2019-02-21T23:19:31.591Z,9.50
2019-02-21T23:22:02.331Z,9.50
2019-02-21T23:24:35.831Z,9.40
2019-02-21T23:27:06.413Z,9.40
2019-02-21T23:29:36.820Z,9.40
2019-02-21T23:32:06.991Z,9.30
2019-02-21T23:34:39.810Z,9.30
2019-02-21T23:37:10.066Z,9.30
2019-02-21T23:39:40.862Z,9.20
2019-02-21T23:42:11.634Z,9.30
2019-02-21T23:44:43.842Z,9.40
2019-02-21T23:47:16.390Z,9.30
2019-02-21T23:49:46.674Z,9.20
2019-02-21T23:52:21.399Z,9.20
2019-02-21T23:54:53.970Z,9.20
2019-02-21T23:57:29.125Z,9.30
2019-02-21T23:59:59.757Z,9.30
